createdAt,value
2023-03-27T00:01:07.991Z,100499.31
2023-03-27T00:03:34.519Z,100506.97
2023-03-27T00:06:02.812Z,100503.97
2023-03-27T00:08:29.789Z,100508.78
2023-03-27T00:10:56.349Z,100512.81
2023-03-27T00:13:22.885Z,100514.94
2023-03-27T00:15:50.469Z,100519.75
2023-03-27T00:18:17.513Z,100525.63
2023-03-27T00:20:44.623Z,100527.72
2023-03-27T00:23:11.080Z,100527.44
2023-03-27T00:25:37.545Z,100542.44
2023-03-27T00:28:09.836Z,100547.56
2023-03-27T00:30:37.013Z,100557.03
2023-03-27T00:33:03.634Z,100556.53
2023-03-27T00:35:30.115Z,100561.66
2023-03-27T00:37:58.813Z,100569.94
2023-03-27T00:40:25.573Z,100568.16
2023-03-27T00:42:52.166Z,100562.91
2023-03-27T00:45:30.121Z,100572.97
2023-03-27T00:48:02.892Z,100572.78
2023-03-27T00:50:37.283Z,100574.59
2023-03-27T00:53:10.230Z,100577.59
2023-03-27T00:55:38.477Z,100588.66
2023-03-27T00:58:10.338Z,100589.66
2023-03-27T01:00:36.894Z,100583.34
2023-03-27T01:03:05.907Z,100584.41
2023-03-27T01:05:33.479Z,100583.22
2023-03-27T01:08:01.804Z,100587.94
2023-03-27T01:10:39.670Z,100583.56
2023-03-27T01:13:38.332Z,100594.50
2023-03-27T01:16:25.843Z,100594.88
2023-03-27T01:19:01.421Z,100604.94
2023-03-27T01:21:52.628Z,100605.47
2023-03-27T01:24:35.285Z,100607.59
2023-03-27T01:27:05.365Z,100617.44
2023-03-27T01:29:31.635Z,100618.31
2023-03-27T01:32:12.955Z,100625.22
2023-03-27T01:35:01.315Z,100625.09
2023-03-27T01:37:43.444Z,100632.75
2023-03-27T01:40:14.962Z,100630.03
2023-03-27T01:42:48.299Z,100634.50
2023-03-27T01:45:20.615Z,100638.13
2023-03-27T01:47:56.477Z,100648.13
2023-03-27T01:50:29.123Z,100647.38
2023-03-27T01:53:01.178Z,100659.56
2023-03-27T01:55:31.874Z,100657.25
2023-03-27T01:58:03.112Z,100662.88
2023-03-27T02:00:51.472Z,100669.69
2023-03-27T02:03:21.028Z,100668.06
2023-03-27T02:05:58.332Z,100678.03
2023-03-27T02:08:31.137Z,100681.91
2023-03-27T02:10:59.054Z,100680.16
2023-03-27T02:13:47.305Z,100687.09
2023-03-27T02:16:16.792Z,100680.44
2023-03-27T02:18:48.030Z,100687.69
2023-03-27T02:21:15.293Z,100692.13
2023-03-27T02:23:41.880Z,100691.41
2023-03-27T02:26:11.283Z,100693.44
2023-03-27T02:28:41.398Z,100686.56
2023-03-27T02:31:44.139Z,100699.75
2023-03-27T02:34:10.462Z,100705.38
2023-03-27T02:36:50.739Z,100703.28
2023-03-27T02:39:40.535Z,100704.03
2023-03-27T02:42:17.840Z,100725.44
2023-03-27T02:44:52.323Z,100724.38
2023-03-27T02:47:18.824Z,100736.31
2023-03-27T02:49:58.447Z,100738.63
2023-03-27T02:52:30.071Z,100734.91
2023-03-27T02:55:06.154Z,100754.28
2023-03-27T02:57:39.536Z,100757.31
2023-03-27T03:00:25.913Z,100754.09
2023-03-27T03:03:10.496Z,100762.91
2023-03-27T03:05:37.123Z,100760.47
2023-03-27T03:08:04.787Z,100771.72
2023-03-27T03:10:31.468Z,100762.72
2023-03-27T03:12:57.929Z,100760.19
2023-03-27T03:15:24.322Z,100772.63
2023-03-27T03:17:51.019Z,100770.06
2023-03-27T03:20:17.565Z,100768.66
2023-03-27T03:22:43.960Z,100783.28
2023-03-27T03:25:12.939Z,100782.16
2023-03-27T03:27:41.204Z,100782.44
2023-03-27T03:30:09.542Z,100785.44
2023-03-27T03:32:35.990Z,100790.06
2023-03-27T03:35:02.819Z,100793.72
2023-03-27T03:37:29.216Z,100804.81
2023-03-27T03:39:55.866Z,100803.56
2023-03-27T03:42:24.171Z,100809.69
2023-03-27T03:44:50.909Z,100814.53
2023-03-27T03:47:17.408Z,100817.03
2023-03-27T03:49:43.810Z,100814.69
2023-03-27T03:52:10.632Z,100818.25
2023-03-27T03:54:38.577Z,100822.56
2023-03-27T03:57:05.093Z,100834.31
2023-03-27T03:59:32.037Z,100840.75
2023-03-27T04:01:58.443Z,100841.03
2023-03-27T04:04:25.079Z,100838.81
2023-03-27T04:06:52.916Z,100839.19
2023-03-27T04:09:19.290Z,100845.00
2023-03-27T04:11:45.924Z,100842.19
2023-03-27T04:14:12.299Z,100851.56
2023-03-27T04:16:38.661Z,100846.13
2023-03-27T04:19:05.615Z,100863.94
2023-03-27T04:21:33.045Z,100864.44
2023-03-27T04:24:02.342Z,100866.72
2023-03-27T04:26:29.552Z,100862.44
2023-03-27T04:28:56.028Z,100864.44
2023-03-27T04:31:22.459Z,100872.81
2023-03-27T04:33:51.870Z,100866.59
2023-03-27T04:36:18.849Z,100880.66
2023-03-27T04:38:45.532Z,100889.97
2023-03-27T04:41:11.964Z,100884.63
2023-03-27T04:43:40.077Z,100887.50
2023-03-27T04:46:07.182Z,100888.97
2023-03-27T04:48:34.044Z,100888.16
2023-03-27T04:51:00.475Z,100897.31
2023-03-27T04:53:30.124Z,100889.41
2023-03-27T04:55:57.102Z,100907.91
2023-03-27T04:58:26.609Z,100900.88
2023-03-27T05:00:56.325Z,100906.47
2023-03-27T05:03:27.721Z,100918.69
2023-03-27T05:05:54.284Z,100914.66
2023-03-27T05:08:20.866Z,100918.22
2023-03-27T05:10:47.259Z,100932.16
2023-03-27T05:13:13.724Z,100924.84
2023-03-27T05:15:40.296Z,100929.38
2023-03-27T05:18:07.395Z,100934.03
2023-03-27T05:20:34.314Z,100940.22
2023-03-27T05:23:00.881Z,100938.72
2023-03-27T05:25:28.542Z,100938.94
2023-03-27T05:27:54.997Z,100936.41
2023-03-27T05:30:23.106Z,100942.41
2023-03-27T05:32:51.948Z,100945.66
2023-03-27T05:35:20.915Z,100957.03
2023-03-27T05:37:48.844Z,100965.38
2023-03-27T05:40:16.855Z,100972.50
2023-03-27T05:42:44.573Z,100975.75
2023-03-27T05:45:12.057Z,100975.25
2023-03-27T05:47:45.480Z,100979.78
2023-03-27T05:50:11.930Z,100982.94
2023-03-27T05:52:38.610Z,100986.59
2023-03-27T05:55:06.498Z,100983.09
2023-03-27T05:57:32.965Z,100984.13
2023-03-27T06:00:00.190Z,100987.53
2023-03-27T06:02:27.634Z,100995.41
2023-03-27T06:04:54.049Z,100998.97
2023-03-27T06:07:20.438Z,100993.81
2023-03-27T06:09:46.811Z,101001.84
2023-03-27T06:12:13.189Z,101004.03
2023-03-27T06:14:39.557Z,100997.03
2023-03-27T06:17:06.393Z,101002.47
2023-03-27T06:19:32.768Z,101020.19
2023-03-27T06:21:59.155Z,101016.97
2023-03-27T06:24:26.273Z,101022.75
2023-03-27T06:26:52.942Z,101024.53
2023-03-27T06:29:19.987Z,101029.53
2023-03-27T06:31:48.284Z,101022.81
2023-03-27T06:34:15.045Z,101033.06
2023-03-27T06:36:41.508Z,101031.78
2023-03-27T06:39:08.254Z,101019.16
2023-03-27T06:41:34.668Z,101027.31
2023-03-27T06:44:01.460Z,101025.38
2023-03-27T06:46:35.617Z,101022.06
2023-03-27T06:49:11.494Z,101026.84
2023-03-27T06:51:37.888Z,101036.66
2023-03-27T06:54:04.596Z,101031.06
2023-03-27T06:56:31.280Z,101038.31
2023-03-27T06:58:57.662Z,101044.66
2023-03-27T07:01:24.064Z,101051.16
2023-03-27T07:03:50.599Z,101050.47
2023-03-27T07:06:19.161Z,101046.94
2023-03-27T07:08:47.694Z,101053.88
2023-03-27T07:11:15.621Z,101058.94
2023-03-27T07:13:42.256Z,101059.03
2023-03-27T07:16:11.871Z,101065.16
2023-03-27T07:18:38.438Z,101062.75
2023-03-27T07:21:04.957Z,101076.97
2023-03-27T07:23:31.604Z,101072.81
2023-03-27T07:25:59.210Z,101077.53
2023-03-27T07:28:26.197Z,101075.66
2023-03-27T07:30:52.739Z,101086.53
2023-03-27T07:33:19.511Z,101082.72
2023-03-27T07:35:47.477Z,101086.69
2023-03-27T07:38:14.377Z,101085.25
2023-03-27T07:40:42.609Z,101085.25
2023-03-27T07:43:09.240Z,101095.47
2023-03-27T07:45:36.494Z,101099.53
2023-03-27T07:48:08.415Z,101101.13
2023-03-27T07:50:35.797Z,101092.25
2023-03-27T07:53:02.186Z,101113.09
2023-03-27T07:55:29.650Z,101108.16
2023-03-27T07:58:01.679Z,101100.78
2023-03-27T08:00:31.057Z,101096.56
2023-03-27T08:03:08.374Z,101112.66
2023-03-27T08:05:35.725Z,101114.63
2023-03-27T08:08:02.112Z,101107.09
2023-03-27T08:10:28.517Z,101117.81
2023-03-27T08:12:54.993Z,101114.72
2023-03-27T08:15:24.821Z,101125.00
2023-03-27T08:17:54.353Z,101124.41
2023-03-27T08:20:22.743Z,101117.22
2023-03-27T08:22:53.498Z,101132.44
2023-03-27T08:25:22.374Z,101116.97
2023-03-27T08:27:49.130Z,101122.28
2023-03-27T08:30:17.035Z,101119.31
2023-03-27T08:32:44.002Z,101135.94
2023-03-27T08:35:10.752Z,101119.16
2023-03-27T08:37:37.104Z,101128.84
2023-03-27T08:40:08.723Z,101132.28
2023-03-27T08:42:37.717Z,101131.75
2023-03-27T08:45:13.198Z,101129.69
2023-03-27T08:47:49.171Z,101136.50
2023-03-27T08:50:26.198Z,101140.19
2023-03-27T08:52:52.853Z,101149.25
2023-03-27T08:55:26.090Z,101154.50
2023-03-27T08:57:52.760Z,101152.34
2023-03-27T09:00:22.783Z,101153.44
2023-03-27T09:02:57.025Z,101158.34
2023-03-27T09:05:26.263Z,101159.84
2023-03-27T09:08:11.296Z,101157.75
2023-03-27T09:11:15.686Z,101163.13
2023-03-27T09:13:49.619Z,101166.47
2023-03-27T09:16:21.867Z,101164.09
2023-03-27T09:18:57.851Z,101157.75
2023-03-27T09:21:34.780Z,101158.09
2023-03-27T09:24:01.345Z,101161.56
2023-03-27T09:26:35.626Z,101167.59
2023-03-27T09:29:21.125Z,101167.72
2023-03-27T09:31:51.912Z,101168.03
2023-03-27T09:34:25.063Z,101159.28
2023-03-27T09:36:51.460Z,101171.66
2023-03-27T09:39:22.268Z,101172.25
2023-03-27T09:41:53.029Z,101183.34
2023-03-27T09:44:25.608Z,101178.00
2023-03-27T09:46:58.060Z,101170.19
2023-03-27T09:49:25.770Z,101184.09
2023-03-27T09:52:00.130Z,101182.09
2023-03-27T09:54:31.974Z,101183.28
2023-03-27T09:57:04.194Z,101193.09
2023-03-27T09:59:34.630Z,101190.03
2023-03-27T10:02:21.954Z,101189.81
2023-03-27T10:05:00.667Z,101189.97
2023-03-27T10:07:27.331Z,101185.00
2023-03-27T10:10:12.195Z,101195.56
2023-03-27T10:12:39.343Z,101186.88
2023-03-27T10:15:07.827Z,101188.66
2023-03-27T10:17:38.804Z,101181.47
2023-03-27T10:20:17.537Z,101179.19
2023-03-27T10:22:54.565Z,101200.13
2023-03-27T10:25:37.872Z,101203.59
2023-03-27T10:28:27.370Z,101202.50
2023-03-27T10:31:06.505Z,101191.44
2023-03-27T10:33:36.467Z,101193.47
2023-03-27T10:36:04.665Z,101192.09
2023-03-27T10:38:32.532Z,101197.31
2023-03-27T10:41:00.216Z,101211.28
2023-03-27T10:43:43.852Z,101210.25
2023-03-27T10:46:15.833Z,101201.69
2023-03-27T10:48:57.600Z,101201.03
2023-03-27T10:51:49.628Z,101200.84
2023-03-27T10:54:42.518Z,101191.97
2023-03-27T10:57:35.526Z,101195.47
2023-03-27T11:00:13.369Z,101198.75
2023-03-27T11:02:45.251Z,101203.44
2023-03-27T11:05:16.491Z,101201.94
2023-03-27T11:07:47.644Z,101197.75
2023-03-27T11:10:19.396Z,101242.19
2023-03-27T11:12:54.414Z,101261.94
2023-03-27T11:15:27.785Z,101267.03
2023-03-27T11:18:05.495Z,101262.31
2023-03-27T11:20:35.503Z,101249.97
2023-03-27T11:23:11.798Z,101229.75
2023-03-27T11:25:43.218Z,101223.91
2023-03-27T11:28:26.976Z,101214.38
2023-03-27T11:31:12.662Z,101198.69
2023-03-27T11:33:49.182Z,101201.66
2023-03-27T11:36:35.155Z,101202.78
2023-03-27T11:39:15.341Z,101216.47
2023-03-27T11:41:44.154Z,101215.44
2023-03-27T11:44:11.043Z,101221.34
2023-03-27T11:46:56.197Z,101214.28
2023-03-27T11:49:44.531Z,101274.41
2023-03-27T11:52:29.902Z,101288.56
2023-03-27T11:55:07.574Z,101301.34
2023-03-27T11:57:42.899Z,101297.91
2023-03-27T12:00:18.276Z,101291.53
2023-03-27T12:02:59.923Z,101290.22
2023-03-27T12:05:58.342Z,101286.56
2023-03-27T12:08:45.464Z,101273.44
2023-03-27T12:11:12.492Z,101263.03
2023-03-27T12:13:42.816Z,101257.44
2023-03-27T12:16:35.632Z,101251.97
2023-03-27T12:19:39.111Z,101247.84
2023-03-27T12:22:56.682Z,101252.53
2023-03-27T12:25:33.619Z,101247.69
2023-03-27T12:28:22.378Z,101242.16
2023-03-27T12:31:20.631Z,101247.94
2023-03-27T12:33:59.340Z,101255.84
2023-03-27T12:36:26.397Z,101241.84
2023-03-27T12:38:55.699Z,101246.94
2023-03-27T12:41:24.519Z,101238.53
2023-03-27T12:43:57.094Z,101243.03
2023-03-27T12:46:23.479Z,101256.56
2023-03-27T12:49:08.150Z,101270.88
2023-03-27T12:52:02.656Z,101293.53
2023-03-27T12:54:34.160Z,101301.97
2023-03-27T12:57:20.524Z,101299.50
2023-03-27T12:59:54.218Z,101299.03
2023-03-27T13:02:42.480Z,101303.13
2023-03-27T13:05:20.409Z,101298.56
2023-03-27T13:08:15.811Z,101306.38
2023-03-27T13:10:52.458Z,101299.00
2023-03-27T13:13:30.305Z,101299.91
2023-03-27T13:16:11.644Z,101300.63
2023-03-27T13:18:48.291Z,101300.63
2023-03-27T13:21:41.295Z,101299.91
2023-03-27T13:24:19.510Z,101299.38
2023-03-27T13:26:51.935Z,101281.56
2023-03-27T13:29:21.270Z,101297.34
2023-03-27T13:31:49.183Z,101288.66
2023-03-27T13:34:39.665Z,101288.47
2023-03-27T13:37:09.040Z,101319.03
2023-03-27T13:39:55.646Z,101303.59
2023-03-27T13:42:30.563Z,101314.25
2023-03-27T13:45:00.055Z,101297.41
2023-03-27T13:47:33.401Z,101295.31
2023-03-27T13:50:21.056Z,101285.94
2023-03-27T13:52:59.578Z,101293.91
2023-03-27T13:55:31.130Z,101296.59
2023-03-27T13:58:15.865Z,101291.16
2023-03-27T14:01:02.969Z,101299.53
2023-03-27T14:03:52.385Z,101358.59
2023-03-27T14:06:44.925Z,101353.53
2023-03-27T14:09:11.217Z,101353.63
2023-03-27T14:11:47.807Z,101370.03
2023-03-27T14:14:37.147Z,101354.22
2023-03-27T14:17:22.050Z,101351.84
2023-03-27T14:20:06.856Z,101351.16
2023-03-27T14:22:42.866Z,101344.34
2023-03-27T14:25:21.069Z,101340.13
2023-03-27T14:27:54.134Z,101331.13
2023-03-27T14:30:23.985Z,101316.47
2023-03-27T14:32:50.539Z,101302.13
2023-03-27T14:35:36.082Z,101305.16
2023-03-27T14:38:28.234Z,101309.38
2023-03-27T14:40:59.451Z,101310.28
2023-03-27T14:43:27.824Z,101321.22
2023-03-27T14:45:59.779Z,101317.72
2023-03-27T14:48:37.081Z,101317.19
2023-03-27T14:51:09.286Z,101331.47
2023-03-27T14:53:36.322Z,101334.19
2023-03-27T14:56:06.054Z,101326.13
2023-03-27T14:58:32.456Z,101335.06
2023-03-27T15:01:00.301Z,101344.00
2023-03-27T15:03:30.067Z,101347.16
2023-03-27T15:06:00.990Z,101347.78
2023-03-27T15:08:33.908Z,101348.50
2023-03-27T15:11:00.536Z,101341.03
2023-03-27T15:13:33.586Z,101345.06
2023-03-27T15:16:00.899Z,101355.66
2023-03-27T15:18:34.322Z,101347.47
2023-03-27T15:21:04.221Z,101351.66
2023-03-27T15:23:55.523Z,101345.22
2023-03-27T15:26:25.494Z,101340.19
2023-03-27T15:29:08.052Z,101338.47
2023-03-27T15:31:35.112Z,101344.56
2023-03-27T15:34:06.263Z,101352.06
2023-03-27T15:36:34.569Z,101348.88
2023-03-27T15:39:02.556Z,101333.84
2023-03-27T15:41:31.861Z,101336.22
2023-03-27T15:44:03.291Z,101324.41
2023-03-27T15:46:51.096Z,101324.94
2023-03-27T15:49:19.975Z,101333.25
2023-03-27T15:51:46.351Z,101339.00
2023-03-27T15:54:24.476Z,101333.16
2023-03-27T15:56:51.289Z,101336.91
2023-03-27T15:59:17.945Z,101346.69
2023-03-27T16:02:03.538Z,101341.06
2023-03-27T16:04:39.152Z,101347.16
2023-03-27T16:07:18.291Z,101351.50
2023-03-27T16:09:54.828Z,101363.28
2023-03-27T16:12:25.982Z,101362.66
2023-03-27T16:14:54.466Z,101374.78
2023-03-27T16:17:32.296Z,101378.94
2023-03-27T16:20:01.900Z,101381.44
2023-03-27T16:22:30.675Z,101394.22
2023-03-27T16:24:57.794Z,101383.31
2023-03-27T16:27:27.672Z,101393.13
2023-03-27T16:29:54.468Z,101395.88
2023-03-27T16:32:22.012Z,101403.16
2023-03-27T16:34:51.399Z,101398.28
2023-03-27T16:37:20.057Z,101409.84
2023-03-27T16:39:46.784Z,101417.69
2023-03-27T16:42:15.961Z,101418.34
2023-03-27T16:44:43.138Z,101420.59
2023-03-27T16:47:09.531Z,101427.75
2023-03-27T16:49:35.935Z,101431.22
2023-03-27T16:52:02.441Z,101436.69
2023-03-27T16:54:28.807Z,101439.81
2023-03-27T16:56:55.262Z,101440.13
2023-03-27T16:59:21.747Z,101444.53
2023-03-27T17:01:48.340Z,101446.59
2023-03-27T17:04:14.797Z,101446.09
2023-03-27T17:06:41.618Z,101439.41
2023-03-27T17:09:09.509Z,101457.78
2023-03-27T17:11:36.196Z,101462.78
2023-03-27T17:14:02.807Z,101466.97
2023-03-27T17:16:29.199Z,101481.94
2023-03-27T17:18:57.242Z,101479.81
2023-03-27T17:21:24.986Z,101477.06
2023-03-27T17:23:52.690Z,101480.88
2023-03-27T17:26:23.286Z,101494.66
2023-03-27T17:28:49.715Z,101485.28
2023-03-27T17:31:16.194Z,101495.56
2023-03-27T17:33:42.643Z,101497.22
2023-03-27T17:36:11.093Z,101500.88
2023-03-27T17:38:38.072Z,101507.91
2023-03-27T17:41:05.592Z,101510.78
2023-03-27T17:43:32.190Z,101515.91
2023-03-27T17:45:58.808Z,101517.66
2023-03-27T17:48:25.367Z,101515.72
2023-03-27T17:51:05.165Z,101516.78
2023-03-27T17:53:34.436Z,101514.91
2023-03-27T17:56:00.791Z,101521.88
2023-03-27T17:58:28.501Z,101525.28
2023-03-27T18:00:55.425Z,101535.19
2023-03-27T18:03:22.132Z,101532.44
2023-03-27T18:05:48.673Z,101540.59
2023-03-27T18:08:16.953Z,101541.69
2023-03-27T18:10:48.387Z,101539.38
2023-03-27T18:13:16.091Z,101544.56
2023-03-27T18:15:42.641Z,101544.19
2023-03-27T18:18:09.182Z,101548.63
2023-03-27T18:20:35.982Z,101547.41
2023-03-27T18:23:02.772Z,101549.78
2023-03-27T18:25:29.169Z,101553.63
2023-03-27T18:27:55.767Z,101556.75
2023-03-27T18:30:22.168Z,101560.84
2023-03-27T18:32:48.763Z,101570.44
2023-03-27T18:35:17.852Z,101560.78
2023-03-27T18:37:44.702Z,101575.16
2023-03-27T18:40:13.280Z,101576.22
2023-03-27T18:42:40.630Z,101581.03
2023-03-27T18:45:08.390Z,101581.50
2023-03-27T18:47:35.508Z,101589.69
2023-03-27T18:50:02.610Z,101584.72
2023-03-27T18:52:29.035Z,101587.75
2023-03-27T18:54:55.401Z,101594.81
2023-03-27T18:57:22.118Z,101601.53
2023-03-27T18:59:49.283Z,101598.81
2023-03-27T19:02:17.213Z,101599.09
2023-03-27T19:04:44.596Z,101600.97
2023-03-27T19:07:11.596Z,101604.97
2023-03-27T19:09:41.333Z,101605.38
2023-03-27T19:12:08.177Z,101610.00
2023-03-27T19:14:34.739Z,101609.88
2023-03-27T19:17:01.157Z,101609.47
2023-03-27T19:19:27.609Z,101610.00
2023-03-27T19:21:54.516Z,101616.19
2023-03-27T19:24:20.911Z,101616.97
2023-03-27T19:26:47.329Z,101620.25
2023-03-27T19:29:13.857Z,101617.16
2023-03-27T19:31:40.558Z,101618.78
2023-03-27T19:34:07.233Z,101622.19
2023-03-27T19:36:34.014Z,101619.34
2023-03-27T19:39:00.808Z,101625.47
2023-03-27T19:41:27.344Z,101628.75
2023-03-27T19:43:53.746Z,101621.63
2023-03-27T19:46:20.187Z,101628.44
2023-03-27T19:48:49.615Z,101629.47
2023-03-27T19:51:16.014Z,101636.59
2023-03-27T19:53:42.397Z,101632.34
2023-03-27T19:56:08.786Z,101642.38
2023-03-27T19:58:35.264Z,101644.13
2023-03-27T20:01:01.676Z,101646.09
2023-03-27T20:03:29.216Z,101652.44
2023-03-27T20:06:07.039Z,101657.81
2023-03-27T20:08:37.837Z,101655.75
2023-03-27T20:11:04.376Z,101657.63
2023-03-27T20:13:30.765Z,101659.25
2023-03-27T20:15:57.968Z,101658.16
2023-03-27T20:18:24.482Z,101655.53
2023-03-27T20:20:50.856Z,101670.06
2023-03-27T20:23:17.624Z,101675.78
2023-03-27T20:25:44.740Z,101681.09
2023-03-27T20:28:11.239Z,101681.78
2023-03-27T20:30:38.968Z,101679.41
2023-03-27T20:33:05.701Z,101678.72
2023-03-27T20:35:33.270Z,101672.28
2023-03-27T20:38:04.651Z,101683.97
2023-03-27T20:40:52.946Z,101676.13
2023-03-27T20:43:22.729Z,101680.09
2023-03-27T20:45:54.646Z,101684.13
2023-03-27T20:48:21.753Z,101684.94
2023-03-27T20:50:51.093Z,101678.00
2023-03-27T20:53:18.825Z,101686.41
2023-03-27T20:55:59.374Z,101690.81
2023-03-27T20:58:26.303Z,101679.09
2023-03-27T21:00:53.417Z,101690.06
2023-03-27T21:03:20.821Z,101688.59
2023-03-27T21:05:47.291Z,101683.66
2023-03-27T21:08:13.791Z,101680.19
2023-03-27T21:10:41.126Z,101684.59
2023-03-27T21:13:07.868Z,101689.69
2023-03-27T21:15:34.559Z,101693.34
2023-03-27T21:18:01.299Z,101703.22
2023-03-27T21:20:27.958Z,101699.91
2023-03-27T21:22:54.339Z,101698.47
2023-03-27T21:25:21.529Z,101704.34
2023-03-27T21:27:48.448Z,101695.94
2023-03-27T21:30:16.506Z,101704.88
2023-03-27T21:32:43.167Z,101705.59
2023-03-27T21:35:09.851Z,101708.31
2023-03-27T21:37:36.766Z,101708.88
2023-03-27T21:40:04.670Z,101709.75
2023-03-27T21:42:31.156Z,101711.75
2023-03-27T21:44:57.674Z,101711.59
2023-03-27T21:47:31.666Z,101709.22
2023-03-27T21:50:04.065Z,101712.53
2023-03-27T21:52:30.488Z,101707.97
2023-03-27T21:55:02.887Z,101703.41
2023-03-27T21:57:29.811Z,101707.97
2023-03-27T21:59:56.242Z,101703.75
2023-03-27T22:02:22.614Z,101712.34
2023-03-27T22:04:49.144Z,101711.66
2023-03-27T22:07:15.910Z,101712.16
2023-03-27T22:09:44.311Z,101714.72
2023-03-27T22:12:10.754Z,101714.53
2023-03-27T22:14:37.138Z,101719.28
2023-03-27T22:17:03.682Z,101721.31
2023-03-27T22:19:30.398Z,101728.44
2023-03-27T22:21:57.346Z,101728.91
2023-03-27T22:24:25.382Z,101736.28
2023-03-27T22:26:51.763Z,101741.75
2023-03-27T22:29:18.120Z,101746.97
2023-03-27T22:31:44.515Z,101745.97
2023-03-27T22:34:11.664Z,101748.56
2023-03-27T22:36:38.143Z,101758.41
2023-03-27T22:39:04.943Z,101755.41
2023-03-27T22:41:31.309Z,101759.47
2023-03-27T22:44:00.255Z,101757.03
2023-03-27T22:46:26.688Z,101758.53
2023-03-27T22:48:55.210Z,101769.09
2023-03-27T22:51:22.292Z,101763.69
2023-03-27T22:53:48.840Z,101759.44
2023-03-27T22:56:15.476Z,101770.81
2023-03-27T22:58:41.827Z,101774.19
2023-03-27T23:01:08.243Z,101776.97
2023-03-27T23:03:34.684Z,101778.34
2023-03-27T23:06:01.574Z,101786.81
2023-03-27T23:08:28.629Z,101784.75
2023-03-27T23:11:00.482Z,101789.53
2023-03-27T23:13:28.234Z,101789.47
2023-03-27T23:15:55.312Z,101785.13
2023-03-27T23:18:24.367Z,101787.44
2023-03-27T23:21:07.840Z,101785.03
2023-03-27T23:23:35.718Z,101778.56
2023-03-27T23:26:03.546Z,101787.34
2023-03-27T23:28:32.971Z,101785.31
2023-03-27T23:31:04.734Z,101784.34
2023-03-27T23:33:41.809Z,101791.69
2023-03-27T23:36:13.106Z,101796.72
2023-03-27T23:38:41.265Z,101794.91
2023-03-27T23:41:08.777Z,101784.53
2023-03-27T23:43:35.721Z,101795.38
2023-03-27T23:46:04.046Z,101793.63
2023-03-27T23:48:31.105Z,101793.94
2023-03-27T23:50:58.096Z,101802.53
2023-03-27T23:53:26.100Z,101802.38
2023-03-27T23:55:53.286Z,101806.63
2023-03-27T23:58:20.158Z,101810.16
